KJST

John Murtha Johnstown-Cambria Co Airport

Johnstown, Pennsylvania, USA
METAR KJST 201154Z AUTO 24017G25KT 10SM CLR 02/M04 A2994 RMK AO2 PK WND 24031/1126 SLP158 T00171039 10028 20017 53007 $
Observed Flight Rules
Jan-20 @ 11:54 UTC (an hour ago) Visual Flight Rules
Wind Visibility Clouds
240° at 17 knots
 Gusting to 25 knots
10 miles
  • Clear skies
Temperatures Readings
Current 2°C / 36°F
Dewpoint -4°C / 25°F
Humidity 65%
Altimeter 29.94" Hg
Pressure 1015.8 hPa
Elevation 694
METAR KJST 201154Z AUTO 24017G25KT 10SM CLR 02/M04 A2994 RMK AO2 PK WND 24031/1126 SLP158 T00171039 10028 20017 53007 $
Observed Flight Rules
Jan-20 @ 11:54 UTC
(an hour ago)
VFR
Wind Visibility
240° at 17 knots
 Gusting to 25 knots
10 miles
Clouds
  • Clear skies
Temperature Dewpoint
2°C / 36°F -4°C / 25°F
Humidity Altimeter Pressure
65% 29.94" Hg 1015.8 hPa